Huvudsida
METAR-TAF:

METAR-TAF

Flygplatser :

Sindals flygplats

Sindal, Danmark

latitud: 57-30N, longitud: 010-13E, höjd: 28 m

Aktuellt väderrapport

Denna rapport gjordes för 15 timmar och 15 minuter sedan, klockan 12:50 UTC
Vind 9 kt från sydväst
Temperatur 9°C
Fuktighet 76%
Tryck 1027 hPa
Sikt 10 km eller mer
Inga moln under 1 500 m eller inga cumulonimbus

METAR: EKSN 151250Z 22009KT CAVOK 09/05 Q1027

Tid: 05:05 (04:05 UTC)

Väderprognos

Denna rapport gjordes för 19 timmar och 11 minuter sedan, klockan 08:54 UTC
Prognos gäller från 15 kl. 09 UTC till 15 kl. 15 UTC
Vind 10 kt från syd/sydväst
Sikt: 2500 m
på en höjd av 400 ft
fuktdis
Blir
från 15 kl. 09 UTC till 15 kl. 11 UTC
Sikt 10 km eller mer
Få moln på en höjd av 400 ft

TAF: EKSN 150854Z 1509/1515 21010KT 2500 BR VV004 BECMG 1509/1511 9999 NSW FEW004

Aktuella väderrapporter och prognoser från 4000 flygplatser (METAR- och TAF-rapporter).

De tillgängliga stationerna syns som gula och röda prickar på kartan.

För musen över prickarna för att se namnen på stationerna.

Klicka sedan för att få väderrapporter och prognoser.

För att ändra kartan: Klicka på de gröna knapparna med ett svart kors på för att zooma in; den gröna knappen med ett streck på för att zooma ut; eller på de gröna pilarna för angränsande kartor.


METAR-TAF: